Airfield :
LOGIN :

Register | Disclaimer

   EN    FR    IT 

 










Legend :    VFR   Marginal VFR   IFR   Intensive IFR   Very Intensive IFR
Visi :
Ceiling :
>= 8 km
>= 3000ft
5 to 8 km
1000 to 3000 ft
1500m to 5 km
500 to 1000 ft
800 to 1500m
200 to 500 ft
< 800m
< 200 ft
Symbols :   Thunderstorms  Fog  Heavy snow  Heavy precipitations  Wind > 20 kt
SIGMETs :     Misc.  Thunderstorms  Icing  Turbulence  Mountain Waves  Volcanic Ashes






- Airport Elevation : 587 ft
- IATA code : XCR


LFOK - Chalons Vatry

CURRENT METAR :
  • 170730Z AUTO 33004KT 0300 0250 R10/0350N R28/0325N FZFG VV/// M02/M02 Q1009 BECMG 5000 BR BKN003

EXPIRED METARs :
  • 170700Z AUTO 01003KT 340V040 0350 0300 R10/0450N R28/2200U FZFG VV/// M02/M02 Q1009 NOSIG
  • 170630Z AUTO 04006KT 0450 0300 R10/0550U R28/0600N FZFG VV/// M02/M02 Q1009 TEMPO 0200
  • 170600Z AUTO 36004KT 0500 0450 R10/0650N R28/0550D FZFG VV/// M02/M02 Q1009 TEMPO 0200 FZFG
  • 170530Z AUTO 02004KT 350V050 1300 0550 R10/0750N R28/P5000 BCFG VV/// M02/M02 Q1009 TEMPO 0200 FZFG
  • 170500Z AUTO 02005KT 2700 0600 R10/0800N R28/P5000 BCFG FEW002 M01/M01 Q1009 TEMPO 0200 FZFG VV///

TAF TAF LFOK
Valid from the 17 at 06:00 until the 18 at 06:00 UTC


170500Z 1706/1806 06005KT 0600 FZFG VV///
TEMPO 1706/1709 0200
BECMG 1709/1711 5000 BR BKN003
BECMG 1711/1713 9999 NSW NSC
BECMG 1720/1723 3000 BR
BECMG 1804/1806 RASN BKN005 OVC020



MET'MAP, your aeronautical weather chart ! - Copyright ORBIFLY December 2007 - Disclaimer

ORBIFLY MET'MAP TEAM :

Programming & Development : Alexandra Zaïnal
Concept & Development : Baudouin d'Aumeries
Co-Development & Prog : Marc-Olivier Méhu
Technical & hardware support : Manuel Goepfert

Contact : metmap@orbifly.com




SOURCES & CREDITS :

   NOAA